Lantana, FL

8:49 AM EDT on October 21, 2014 (GMT -0400)
Island Estates | Change Station
CLOSE
Current Station
Personal Weather Station
Location: Lantana, FL
Elevation: 45 ft
Nearby Weather Stations

Elev 45 ft 26.57 °N, 80.08 °W | Updated 4 minutes ago

Overcast
Overcast
75.4 °F
Feels Like 74 °F
N
0.0
Wind Variable Wind from ESE
Gusts 0.0 mph

Today
High -- | Low -- °F
--% Chance of Precip.
Yesterday
High -- | Low -- °F
Precip. -- in
7:22 AM 6:46 PM
Waning Crescent, 6% visible
Pressure 29.94 in
Visibility 10.0 miles
Clouds Few 1500 ft
Mostly Cloudy 2500 ft
Overcast 25000 ft
Heat Index 74 °F
Dew Point 74 °F
Humidity 94%
Rainfall 0.20 in
Snow Depth Not available.
UV 0 out of 12
Pollen 3.20 out of 12
Ozone Good
PM2.5 Good
Flu Activity Local Activity
SPECI KPBI 211217Z 15008KT 10SM TS FEW015 BKN025CB OVC250 25/21 A2994 RMK AO2 TSB02 OCNL LTGIC NE-S TS NE-S MOV N VCSH NE-SE T02500211

More Conditions Fewer Conditions

Pressure 29.94 in
Visibility 10.0 miles
Clouds Few 1500 ft
Mostly Cloudy 2500 ft
Overcast 25000 ft
Heat Index 74 °F
Dew Point 74 °F
Humidity 94%
Rainfall 0.20 in
Snow Depth Not available.
UV 0 out of 12
Pollen 3.20 out of 12
Ozone Good
PM2.5 Good
Flu Activity Local Activity
SPECI KPBI 211217Z 15008KT 10SM TS FEW015 BKN025CB OVC250 25/21 A2994 RMK AO2 TSB02 OCNL LTGIC NE-S TS NE-S MOV N VCSH NE-SE T02500211

More Conditions Fewer Conditions

10-Day Weather Forecast

Almanac

Astronomy

Oct. 21, 2014 Rise Set
Actual Time 7:22 AM EDT 6:46 PM EDT
Civil Twilight 6:59 AM EDT 7:09 PM EDT
Nautical Twilight 6:32 AM EDT 7:37 PM EDT
Astronomical Twilight 6:05 AM EDT 8:03 PM EDT
Moon 5:18 AM EDT 5:29 PM EDT
Length of Visible Light 12h 10m
Length of Day
11h 23m
Tomorrow will be 1m 28s shorter.
Waning Crescent, 6% of the Moon is Illuminated
Today
Waning Crescent
Oct 23
New
Oct 30
First Quarter
Nov 6
Full
Nov 14
Last Quarter

Today's Extremes

State Highs State Lows

Community

WunderPhotos

Upload Photos

1,763,649 photos uploaded!

Nearby

Air Quality

  Air Quality AQ Index Pollutant
Yesterday Good
PM2.5
Yesterday Good
OZONE
Current Good
PM2.5
Current Good
OZONE
Tuesday Good
OZONE
Tuesday Good
PM2.5
Wednesday Good
OZONE
Wednesday Good
PM2.5

Snow Depth

Station Depth Elevation
No new snow has been reported.

Earthquake Activity

City Distance Mag. Time & Date
No recent earthquake activity has been reported nearby.
Minimum magnitude displayed is 2.5.

Coastal Water Temperatures

Place Temperature
Lake Worth, FL 82.9 °F
Virginia Key, FL 81.0 °F

Nearby Weather Stations